Time;durP1;ratioP1;P1;durP2;ratioP2;P2;SDS_P1;SDS_P2;PMS_P1;PMS_P2;Temp;Humidity;BMP_temperature;BMP_pressure;BME280_temperature;BME280_humidity;BME280_pressure;Samples;Min_cycle;Max_cycle;Signal;HPM_P1;HPM_P2
2023/01/30 00:01:33;;;;;;;;;;;;;;;21.27;19.82;98160.13;4998235;28;748;-77
2023/01/30 00:03:59;;;;;;;;;;;;;;;21.25;19.96;98168.28;4997474;28;1022;-77
2023/01/30 00:06:24;;;;;;;;;;;;;;;21.20;20.08;98160.31;4997714;28;847;-76
2023/01/30 00:08:49;;;;;;;;;;;;;;;21.53;19.69;98161.19;4980433;28;763;-77
2023/01/30 00:11:15;;;;;;;;;;;;;;;21.59;19.56;98165.06;4997632;28;989;-77
2023/01/30 00:13:41;;;;;;;;;;;;;;;21.85;19.34;98161.19;4979358;28;759;-77
2023/01/30 00:16:08;;;;;;;;;;;;;;;21.36;19.66;98162.41;4980216;28;712;-77
2023/01/30 00:18:34;;;;;;;;;;;;;;;21.31;19.81;98166.56;4980236;28;1902;-77
2023/01/30 00:21:00;;;;;;;;;;;;;;;21.47;20.04;98163.75;4980195;28;855;-77
2023/01/30 00:23:25;;;;;;;;;;;;;;;21.76;19.35;98163.03;4996153;28;861;-77
2023/01/30 00:25:51;;;;;;;;;;;;;;;21.74;19.54;98160.66;4996527;28;1729;-77
2023/01/30 00:28:16;;;;;;;;;;;;;;;21.68;19.70;98161.63;5016821;28;1403;-77
2023/01/30 00:30:42;;;;;;;;;;;;;;;21.35;19.79;98155.13;5015972;28;936;-77
2023/01/30 00:33:07;;;;;;;;;;;;;;;21.29;19.97;98157.66;5016162;28;883;-77
2023/01/30 00:35:33;;;;;;;;;;;;;;;21.49;19.88;98154.81;5015440;28;1299;-77
2023/01/30 00:37:58;;;;;;;;;;;;;;;21.29;20.04;98152.78;5016826;28;1899;-77
2023/01/30 00:40:24;;;;;;;;;;;;;;;21.94;19.38;98162.59;5016812;28;1001;-77
2023/01/30 00:48:18;;;;;;;;;;;;;;;21.45;19.89;98154.09;5001900;28;894;-77
2023/01/30 00:50:44;;;;;;;;;;;;;;;21.49;19.87;98143.47;4999562;28;912;-77
2023/01/30 00:53:11;;;;;;;;;;;;;;;21.97;19.37;98150.41;5016369;28;888;-76
2023/01/30 00:55:37;;;;;;;;;;;;;;;21.72;19.86;98151.03;4998859;28;1339;-77
2023/01/30 00:58:03;;;;;;;;;;;;;;;21.25;20.20;98152.09;5016128;28;1902;-77
2023/01/30 01:00:28;;;;;;;;;;;;;;;20.93;20.47;98146.34;5016136;28;1446;-77
2023/01/30 01:02:54;;;;;;;;;;;;;;;21.32;20.26;98146.28;5015257;28;1119;-76
2023/01/30 01:05:19;;;;;;;;;;;;;;;21.59;19.88;98137.56;5016247;28;1427;-77
2023/01/30 01:07:44;;;;;;;;;;;;;;;21.51;19.80;98138.19;4998462;28;1689;-77
2023/01/30 01:10:15;;;;;;;;;;;;;;;21.50;20.01;98133.75;4998619;28;1008;-77
2023/01/30 01:12:44;;;;;;;;;;;;;;;21.26;20.04;98136.69;4982920;28;820;-77
2023/01/30 01:15:13;;;;;;;;;;;;;;;21.00;20.67;98130.00;4999000;28;1109;-77
2023/01/30 01:17:39;;;;;;;;;;;;;;;21.57;19.76;98134.38;4998110;28;1902;-77
2023/01/30 01:20:04;;;;;;;;;;;;;;;21.55;19.75;98130.38;4982845;28;914;-77
2023/01/30 01:22:31;;;;;;;;;;;;;;;21.77;19.56;98128.63;4981836;28;954;-76
2023/01/30 01:24:56;;;;;;;;;;;;;;;21.54;19.71;98128.78;4998848;28;1215;-76
2023/01/30 01:27:22;;;;;;;;;;;;;;;21.64;19.85;98133.41;4998486;28;1667;-76
2023/01/30 01:29:47;;;;;;;;;;;;;;;21.48;19.74;98120.03;4998314;28;951;-76
2023/01/30 01:32:14;;;;;;;;;;;;;;;20.87;20.79;98119.81;4997793;28;1292;-76
2023/01/30 01:34:39;;;;;;;;;;;;;;;21.60;19.79;98127.03;4994066;28;1204;-77
2023/01/30 01:37:05;;;;;;;;;;;;;;;21.51;19.85;98126.88;4978081;28;1168;-76
2023/01/30 01:42:15;;;;;;;;;;;;;;;21.61;19.72;98122.97;4993419;28;1349;-76
2023/01/30 01:44:58;;;;;;;;;;;;;;;21.10;20.53;98128.19;4977602;28;964;-77
2023/01/30 01:47:24;;;;;;;;;;;;;;;21.07;20.43;98126.22;4977851;28;1488;-77
2023/01/30 01:49:49;;;;;;;;;;;;;;;21.62;19.97;98121.72;4993839;28;1039;-77
2023/01/30 01:52:15;;;;;;;;;;;;;;;21.79;19.53;98128.97;4954521;28;1368;-77
2023/01/30 01:54:51;;;;;;;;;;;;;;;21.70;19.88;98125.97;4954693;28;1473;-76
2023/01/30 01:57:24;;;;;;;;;;;;;;;21.44;20.22;98124.97;4954998;28;1898;-77
2023/01/30 01:59:54;;;;;;;;;;;;;;;21.08;20.40;98119.31;4939249;29;1816;-77
2023/01/30 02:02:19;;;;;;;;;;;;;;;21.16;20.19;98119.97;4954930;28;1289;-76
2023/01/30 02:05:02;;;;;;;;;;;;;;;21.59;19.96;98119.78;4957181;28;1496;-76
2023/01/30 02:07:33;;;;;;;;;;;;;;;21.49;19.92;98118.00;4975054;28;987;-77
2023/01/30 02:09:59;;;;;;;;;;;;;;;21.74;19.46;98115.34;4974596;28;1215;-77
2023/01/30 02:12:24;;;;;;;;;;;;;;;21.35;20.13;98098.53;4973875;28;1396;-76
2023/01/30 02:14:52;;;;;;;;;;;;;;;21.40;20.17;98117.81;4942321;28;1532;-77
2023/01/30 02:17:18;;;;;;;;;;;;;;;21.51;19.83;98124.03;4958220;28;1906;-76
2023/01/30 02:20:04;;;;;;;;;;;;;;;21.50;19.90;98113.91;4974428;28;973;-77
2023/01/30 02:23:02;;;;;;;;;;;;;;;21.65;19.88;98106.66;4977337;28;1395;-77
2023/01/30 02:25:48;;;;;;;;;;;;;;;21.55;19.95;98102.06;4935853;29;1184;-77
2023/01/30 02:28:16;;;;;;;;;;;;;;;21.06;20.27;98104.81;4860430;29;1265;-77
2023/01/30 02:30:47;;;;;;;;;;;;;;;21.17;20.26;98099.72;4860691;29;1099;-76
2023/01/30 02:33:21;;;;;;;;;;;;;;;21.64;19.64;98109.94;4878584;29;1512;-76
2023/01/30 02:35:53;;;;;;;;;;;;;;;21.66;19.77;98108.28;4883414;29;1023;-77
2023/01/30 02:38:30;;;;;;;;;;;;;;;21.95;19.50;98105.50;4901032;29;1978;-77
2023/01/30 02:41:11;;;;;;;;;;;;;;;21.21;20.09;98111.75;4901351;29;1185;-77
2023/01/30 02:43:39;;;;;;;;;;;;;;;21.22;20.31;98110.50;4900096;29;1432;-76
2023/01/30 02:46:08;;;;;;;;;;;;;;;21.20;20.22;98104.50;4901311;29;1131;-77
2023/01/30 02:48:34;;;;;;;;;;;;;;;21.41;19.93;98108.91;4901227;29;979;-77
2023/01/30 02:51:04;;;;;;;;;;;;;;;21.43;20.05;98116.94;4901073;29;1639;-77
2023/01/30 02:53:31;;;;;;;;;;;;;;;21.76;19.64;98100.72;4870819;29;1635;-76
2023/01/30 02:55:57;;;;;;;;;;;;;;;21.30;19.99;98106.31;4863691;29;1362;-77
2023/01/30 02:58:22;;;;;;;;;;;;;;;21.16;20.46;98111.47;4874165;29;1927;-76
2023/01/30 03:00:51;;;;;;;;;;;;;;;20.74;21.00;98100.69;4958028;28;1413;-76
2023/01/30 03:03:22;;;;;;;;;;;;;;;21.48;19.97;98103.03;4991805;28;1577;-76
2023/01/30 03:05:57;;;;;;;;;;;;;;;21.56;20.01;98109.34;4997823;28;1046;-76
2023/01/30 03:08:24;;;;;;;;;;;;;;;21.73;19.82;98102.44;4997997;28;1230;-77
2023/01/30 03:10:56;;;;;;;;;;;;;;;21.88;19.44;98102.06;4981347;28;1069;-77
2023/01/30 03:13:31;;;;;;;;;;;;;;;21.55;19.75;98107.72;5007093;28;1422;-76
2023/01/30 03:15:57;;;;;;;;;;;;;;;21.23;20.55;98097.16;5000661;28;1148;-77
2023/01/30 03:18:22;;;;;;;;;;;;;;;21.41;20.16;98102.44;4996278;28;1995;-76
2023/01/30 03:20:50;;;;;;;;;;;;;;;21.47;20.29;98100.66;4980332;28;1503;-77
2023/01/30 03:23:15;;;;;;;;;;;;;;;21.57;19.73;98108.09;4987814;28;1508;-77
2023/01/30 03:25:41;;;;;;;;;;;;;;;21.62;19.85;98096.25;4999509;28;950;-77
2023/01/30 03:28:07;;;;;;;;;;;;;;;21.33;20.38;98101.81;4983259;28;1178;-77
2023/01/30 03:30:32;;;;;;;;;;;;;;;21.10;20.52;98099.09;5014426;28;1512;-76
2023/01/30 03:33:08;;;;;;;;;;;;;;;21.35;20.41;98095.69;5000780;28;990;-77
2023/01/30 03:35:35;;;;;;;;;;;;;;;21.74;19.91;98100.38;5015727;28;986;-77
2023/01/30 03:38:01;;;;;;;;;;;;;;;21.66;19.78;98102.63;5015411;28;1993;-76
2023/01/30 03:40:27;;;;;;;;;;;;;;;21.81;19.69;98095.34;4981452;28;1538;-77
2023/01/30 03:42:53;;;;;;;;;;;;;;;21.33;20.19;98096.94;5014713;28;1432;-76
2023/01/30 03:45:19;;;;;;;;;;;;;;;21.24;20.35;98093.91;4999071;28;1134;-76
2023/01/30 03:47:46;;;;;;;;;;;;;;;21.32;20.55;98098.19;4998311;28;1088;-77
2023/01/30 03:50:11;;;;;;;;;;;;;;;21.56;20.02;98098.03;5001773;28;1368;-77
2023/01/30 03:52:37;;;;;;;;;;;;;;;21.64;19.90;98093.75;4999860;28;1290;-77
2023/01/30 03:55:07;;;;;;;;;;;;;;;21.94;19.56;98098.25;5000900;28;1296;-77
2023/01/30 03:57:32;;;;;;;;;;;;;;;21.90;19.87;98091.06;4983694;28;1914;-76
2023/01/30 03:59:58;;;;;;;;;;;;;;;21.59;19.92;98082.97;4999387;28;1638;-77
2023/01/30 04:02:25;;;;;;;;;;;;;;;21.42;20.14;98087.03;4994797;28;1503;-76
2023/01/30 04:04:51;;;;;;;;;;;;;;;21.18;20.71;98081.50;4963346;28;1401;-76
2023/01/30 04:07:17;;;;;;;;;;;;;;;21.43;20.35;98086.59;4979192;28;1478;-76
2023/01/30 04:09:44;;;;;;;;;;;;;;;21.41;20.37;98082.63;4977935;28;1690;-76
2023/01/30 04:12:11;;;;;;;;;;;;;;;21.62;20.29;98078.47;4979382;28;1368;-77
2023/01/30 04:14:46;;;;;;;;;;;;;;;21.45;20.21;98081.31;4964103;28;1416;-77
2023/01/30 04:17:29;;;;;;;;;;;;;;;21.17;20.47;98088.41;4995165;28;1906;-77
2023/01/30 04:20:13;;;;;;;;;;;;;;;21.20;20.77;98075.41;4993686;28;1493;-77
2023/01/30 04:22:45;;;;;;;;;;;;;;;21.61;20.02;98083.34;4978807;28;1411;-76
2023/01/30 04:25:11;;;;;;;;;;;;;;;21.36;20.29;98083.16;4962842;28;1265;-77
2023/01/30 04:27:36;;;;;;;;;;;;;;;21.41;20.38;98085.47;4962093;28;1436;-77
2023/01/30 04:30:17;;;;;;;;;;;;;;;21.20;20.41;98087.53;4964790;28;1140;-77
2023/01/30 04:32:44;;;;;;;;;;;;;;;21.24;20.48;98088.25;4983558;28;1225;-78
2023/01/30 04:35:10;;;;;;;;;;;;;;;21.05;20.72;98081.41;4983118;28;1069;-78
2023/01/30 04:37:35;;;;;;;;;;;;;;;21.51;20.31;98087.22;4998720;28;1979;-76
2023/01/30 04:40:01;;;;;;;;;;;;;;;21.70;20.24;98074.97;4975218;28;1179;-76
2023/01/30 04:42:27;;;;;;;;;;;;;;;21.87;20.07;98083.50;4959541;28;1112;-77
2023/01/30 04:45:12;;;;;;;;;;;;;;;21.75;20.02;98076.50;4961811;28;1003;-77
2023/01/30 04:47:38;;;;;;;;;;;;;;;21.27;20.43;98078.84;4958708;28;1798;-76
2023/01/30 04:50:04;;;;;;;;;;;;;;;20.95;20.99;98087.31;4975385;28;921;-77
2023/01/30 04:52:30;;;;;;;;;;;;;;;21.13;20.86;98084.84;4959298;28;1338;-76
2023/01/30 04:54:56;;;;;;;;;;;;;;;21.38;20.47;98080.66;4971396;28;1699;-76
2023/01/30 04:57:22;;;;;;;;;;;;;;;21.87;19.99;98077.81;4978245;28;1989;-76
2023/01/30 04:59:48;;;;;;;;;;;;;;;21.39;20.60;98085.09;4978186;28;899;-77
2023/01/30 05:02:15;;;;;;;;;;;;;;;21.07;20.85;98086.63;4994501;28;977;-77
2023/01/30 05:04:40;;;;;;;;;;;;;;;20.80;21.26;98086.81;4994358;28;942;-77
2023/01/30 05:07:06;;;;;;;;;;;;;;;21.81;20.23;98081.19;4994699;28;909;-76
2023/01/30 05:09:31;;;;;;;;;;;;;;;21.85;19.94;98079.03;4994334;28;1033;-77
2023/01/30 05:11:57;;;;;;;;;;;;;;;22.15;19.84;98077.06;5013568;28;1052;-77
2023/01/30 05:14:22;;;;;;;;;;;;;;;21.28;20.46;98083.28;5016378;28;1226;-76
2023/01/30 05:16:48;;;;;;;;;;;;;;;21.14;20.92;98083.63;5015717;28;1366;-77
2023/01/30 05:19:13;;;;;;;;;;;;;;;21.16;20.85;98080.34;5016124;28;1971;-76
2023/01/30 05:21:39;;;;;;;;;;;;;;;21.47;20.63;98086.50;4993423;28;1394;-76
2023/01/30 05:24:04;;;;;;;;;;;;;;;21.87;19.92;98083.50;4993642;28;1290;-77
2023/01/30 05:26:31;;;;;;;;;;;;;;;21.70;20.35;98086.31;4977730;28;1309;-76
2023/01/30 05:28:56;;;;;;;;;;;;;;;21.82;20.17;98076.31;4993761;28;1250;-77
2023/01/30 05:31:22;;;;;;;;;;;;;;;21.14;20.63;98055.34;4977347;28;1406;-77
2023/01/30 05:33:48;;;;;;;;;;;;;;;21.18;20.97;98089.19;4994040;28;1032;-76
2023/01/30 05:36:14;;;;;;;;;;;;;;;21.55;20.40;98085.09;4977432;28;1086;-77
2023/01/30 05:38:39;;;;;;;;;;;;;;;21.47;20.67;98083.69;4993396;28;1976;-77
2023/01/30 05:41:05;;;;;;;;;;;;;;;21.51;20.53;98084.41;4993628;28;1417;-77
2023/01/30 05:43:31;;;;;;;;;;;;;;;21.63;20.48;98086.50;4993509;28;1235;-77
2023/01/30 05:45:57;;;;;;;;;;;;;;;21.28;20.92;98083.28;4990774;28;1138;-77
2023/01/30 05:48:22;;;;;;;;;;;;;;;21.14;20.85;98083.63;4977201;28;1212;-77
2023/01/30 05:50:51;;;;;;;;;;;;;;;21.41;20.80;98085.47;4993482;28;1242;-77
2023/01/30 05:53:17;;;;;;;;;;;;;;;21.59;20.21;98086.59;4998059;28;1610;-77
2023/01/30 05:55:42;;;;;;;;;;;;;;;22.05;19.70;98084.59;4998566;28;967;-77
2023/01/30 05:58:08;;;;;;;;;;;;;;;21.89;19.97;98086.66;5016558;28;1894;-77
2023/01/30 06:00:33;;;;;;;;;;;;;;;21.46;20.45;98087.75;4998815;28;919;-77
2023/01/30 06:02:59;;;;;;;;;;;;;;;21.11;21.24;98084.50;4998525;28;1037;-77
2023/01/30 06:05:24;;;;;;;;;;;;;;;21.26;20.64;98080.09;5015737;28;940;-77
2023/01/30 06:07:50;;;;;;;;;;;;;;;21.65;20.34;98078.34;5014397;28;888;-76
2023/01/30 06:10:15;;;;;;;;;;;;;;;21.74;20.34;98080.56;5016166;28;933;-78
2023/01/30 06:12:41;;;;;;;;;;;;;;;21.59;20.39;98088.63;5020003;28;932;-76
2023/01/30 06:15:07;;;;;;;;;;;;;;;21.35;20.49;98084.38;5019517;28;916;-77
2023/01/30 06:17:32;;;;;;;;;;;;;;;21.00;20.89;98090.41;5001853;28;1902;-77
2023/01/30 06:19:58;;;;;;;;;;;;;;;21.39;20.72;98087.91;5019312;28;888;-77
2023/01/30 06:22:23;;;;;;;;;;;;;;;21.56;20.25;98083.88;5001966;28;946;-77
2023/01/30 06:24:48;;;;;;;;;;;;;;;21.69;20.09;98083.94;5019426;28;955;-77
2023/01/30 06:27:14;;;;;;;;;;;;;;;21.62;20.27;98078.47;5019522;28;959;-76
2023/01/30 06:29:39;;;;;;;;;;;;;;;21.24;20.77;98082.59;5019069;28;932;-76
2023/01/30 06:32:05;;;;;;;;;;;;;;;21.03;21.10;98077.41;5019770;28;921;-77
2023/01/30 06:34:30;;;;;;;;;;;;;;;21.17;20.80;98074.25;5019032;28;926;-77
2023/01/30 06:36:56;;;;;;;;;;;;;;;21.39;20.56;98071.72;5019260;28;952;-76
2023/01/30 06:39:21;;;;;;;;;;;;;;;21.57;20.56;98071.28;5019198;28;1914;-77
2023/01/30 06:41:47;;;;;;;;;;;;;;;21.81;20.06;98069.88;5019222;28;924;-77
2023/01/30 06:44:12;;;;;;;;;;;;;;;21.26;20.55;98074.44;5019280;28;952;-77
2023/01/30 06:46:37;;;;;;;;;;;;;;;21.21;20.62;98077.81;5018871;28;936;-77
2023/01/30 06:49:03;;;;;;;;;;;;;;;20.85;21.27;98075.00;5018982;28;936;-77
2023/01/30 06:51:29;;;;;;;;;;;;;;;21.60;20.42;98070.38;5018851;28;966;-77
2023/01/30 06:53:54;;;;;;;;;;;;;;;21.36;20.88;98071.84;5017429;28;903;-77
2023/01/30 06:56:20;;;;;;;;;;;;;;;21.61;20.58;98066.34;4983889;28;1032;-76
2023/01/30 06:58:45;;;;;;;;;;;;;;;21.79;20.17;98063.81;5019048;28;1922;-77
2023/01/30 07:01:11;;;;;;;;;;;;;;;21.38;20.63;98069.34;5018749;28;1010;-76
2023/01/30 07:03:36;;;;;;;;;;;;;;;21.17;20.86;98065.75;5019165;28;954;-76
2023/01/30 07:06:02;;;;;;;;;;;;;;;21.59;20.33;98068.81;5018532;28;893;-77
2023/01/30 07:08:27;;;;;;;;;;;;;;;21.37;20.73;98062.09;5018166;28;925;-78
2023/01/30 07:10:53;;;;;;;;;;;;;;;21.53;20.55;98064.91;5000273;28;1086;-77
2023/01/30 07:13:18;;;;;;;;;;;;;;;21.35;20.65;98068.22;5018729;28;989;-77
2023/01/30 07:15:44;;;;;;;;;;;;;;;21.13;21.03;98059.38;5018799;28;962;-76
2023/01/30 07:18:09;;;;;;;;;;;;;;;21.25;20.80;98066.41;5018533;28;1910;-76
2023/01/30 07:20:35;;;;;;;;;;;;;;;21.35;20.82;98067.38;4983683;28;1014;-76
2023/01/30 07:23:00;;;;;;;;;;;;;;;21.27;20.68;98070.38;5017831;28;961;-76
2023/01/30 07:25:26;;;;;;;;;;;;;;;21.60;20.54;98073.22;5018404;28;960;-77
2023/01/30 07:27:52;;;;;;;;;;;;;;;21.46;20.48;98070.78;5018161;28;976;-77
2023/01/30 07:30:17;;;;;;;;;;;;;;;21.21;20.83;98065.69;5018355;28;1050;-77
2023/01/30 07:32:43;;;;;;;;;;;;;;;21.24;21.14;98059.94;5000397;28;939;-77
2023/01/30 07:35:08;;;;;;;;;;;;;;;21.47;20.55;98061.03;5017472;28;1213;-78
2023/01/30 07:37:34;;;;;;;;;;;;;;;21.37;20.94;98062.88;4998694;28;1979;-78
2023/01/30 07:39:59;;;;;;;;;;;;;;;21.62;20.63;98062.25;5017280;28;1234;-77
2023/01/30 07:42:25;;;;;;;;;;;;;;;21.39;20.79;98056.78;5017625;28;1223;-78
2023/01/30 07:44:51;;;;;;;;;;;;;;;21.50;20.65;98046.81;4999968;28;1202;-78
2023/01/30 07:47:18;;;;;;;;;;;;;;;21.33;21.01;98051.66;5016911;28;1049;-77
2023/01/30 07:49:44;;;;;;;;;;;;;;;21.43;20.80;98061.13;4990269;28;1151;-77
2023/01/30 07:52:09;;;;;;;;;;;;;;;21.74;20.31;98058.69;5016854;28;1198;-77
2023/01/30 07:54:35;;;;;;;;;;;;;;;21.71;20.62;98047.47;4998307;28;1270;-76
2023/01/30 07:57:00;;;;;;;;;;;;;;;21.30;20.79;98055.38;5016555;28;1214;-76
2023/01/30 07:59:26;;;;;;;;;;;;;;;21.28;21.06;98054.97;5016880;28;1985;-77
2023/01/30 08:01:51;;;;;;;;;;;;;;;21.07;21.39;98049.84;5015034;28;1227;-77
2023/01/30 08:04:17;;;;;;;;;;;;;;;21.18;20.99;98050.38;5016066;28;1198;-77
2023/01/30 08:06:43;;;;;;;;;;;;;;;21.55;20.73;98051.09;4998343;28;1233;-77
2023/01/30 08:09:08;;;;;;;;;;;;;;;21.53;20.81;98042.28;4991088;28;1187;-77
2023/01/30 08:11:34;;;;;;;;;;;;;;;21.80;20.52;98037.09;5015986;28;1258;-77
2023/01/30 08:13:59;;;;;;;;;;;;;;;21.35;20.96;98050.41;5006860;28;1269;-77
2023/01/30 08:16:25;;;;;;;;;;;;;;;21.02;21.28;98036.22;5015914;28;1253;-78
2023/01/30 08:18:50;;;;;;;;;;;;;;;21.55;20.81;98036.94;5016060;28;1910;-77
2023/01/30 08:21:16;;;;;;;;;;;;;;;21.46;20.98;98031.16;5005654;28;1317;-76
2023/01/30 08:23:41;;;;;;;;;;;;;;;21.54;20.87;98035.38;5015993;28;1230;-78
2023/01/30 08:26:07;;;;;;;;;;;;;;;21.76;20.55;98033.59;5016174;28;1266;-77
2023/01/30 08:28:32;;;;;;;;;;;;;;;21.47;20.52;98027.06;5016067;28;1222;-77
2023/01/30 08:30:58;;;;;;;;;;;;;;;21.17;20.93;98037.47;5015638;28;1239;-77
2023/01/30 08:33:23;;;;;;;;;;;;;;;20.94;21.57;98031.97;5014939;28;1214;-76
2023/01/30 08:35:49;;;;;;;;;;;;;;;21.32;21.22;98027.41;5015748;28;1262;-76
2023/01/30 08:38:14;;;;;;;;;;;;;;;21.74;20.62;98024.72;5016474;28;1906;-76
2023/01/30 08:40:40;;;;;;;;;;;;;;;21.42;20.86;98024.78;5016797;28;1363;-76
2023/01/30 08:43:05;;;;;;;;;;;;;;;21.47;20.97;98015.75;5016844;28;985;-76
2023/01/30 08:45:31;;;;;;;;;;;;;;;21.24;21.28;98014.66;5015513;28;1069;-76
2023/01/30 08:47:57;;;;;;;;;;;;;;;21.07;21.48;98015.88;5015591;28;1246;-76
2023/01/30 08:50:22;;;;;;;;;;;;;;;21.40;21.20;98010.25;5015981;28;1344;-76
2023/01/30 08:52:48;;;;;;;;;;;;;;;21.79;20.39;98010.00;5015764;28;1246;-76
2023/01/30 08:55:13;;;;;;;;;;;;;;;21.64;20.60;98000.31;5015280;28;1391;-77
2023/01/30 08:57:39;;;;;;;;;;;;;;;21.99;20.43;98000.59;5015709;28;1975;-76
2023/01/30 09:00:04;;;;;;;;;;;;;;;21.52;20.78;97989.72;5015170;28;1272;-77
2023/01/30 09:02:30;;;;;;;;;;;;;;;21.28;21.27;97992.72;5015012;28;1060;-76
2023/01/30 09:04:55;;;;;;;;;;;;;;;21.15;21.25;97980.53;5015436;28;1219;-76
2023/01/30 09:07:21;;;;;;;;;;;;;;;21.57;21.03;97975.03;5015420;28;1182;-77
2023/01/30 09:09:47;;;;;;;;;;;;;;;21.44;21.20;97971.31;5015116;28;1219;-77
2023/01/30 09:12:13;;;;;;;;;;;;;;;21.60;20.98;97974.13;5015225;28;1325;-77
2023/01/30 09:14:38;;;;;;;;;;;;;;;21.29;20.96;97976.53;5014968;28;1207;-77
2023/01/30 09:17:03;;;;;;;;;;;;;;;21.20;21.40;97962.22;5015234;28;1179;-77
2023/01/30 09:19:29;;;;;;;;;;;;;;;21.51;21.14;97962.66;5015011;28;1922;-77
2023/01/30 09:21:54;;;;;;;;;;;;;;;21.75;20.83;97964.00;5015481;28;1297;-78
2023/01/30 09:24:25;;;;;;;;;;;;;;;21.78;20.54;97951.78;5003359;28;1318;-77
2023/01/30 09:26:51;;;;;;;;;;;;;;;21.63;20.94;97961.91;5015471;28;1183;-78
2023/01/30 09:29:16;;;;;;;;;;;;;;;21.42;20.92;97951.16;5014761;28;1254;-78
2023/01/30 09:31:42;;;;;;;;;;;;;;;21.02;21.56;97945.69;5013041;28;1275;-77
2023/01/30 09:34:07;;;;;;;;;;;;;;;21.11;21.73;97936.59;5015281;28;1218;-78
2023/01/30 09:36:33;;;;;;;;;;;;;;;21.82;20.67;97952.47;5015175;28;1313;-78
2023/01/30 09:38:58;;;;;;;;;;;;;;;21.73;20.82;97940.22;5014838;28;1910;-77
2023/01/30 09:41:57;;;;;;;;;;;;;;;21.70;20.56;97927.72;5015234;28;1190;-77
2023/01/30 09:44:32;;;;;;;;;;;;;;;21.37;21.18;97931.91;4992949;28;1182;-78
2023/01/30 09:47:03;;;;;;;;;;;;;;;21.10;21.68;97932.97;4990681;28;1183;-77
2023/01/30 09:49:29;;;;;;;;;;;;;;;21.40;21.11;97925.31;4997773;28;1258;-77
2023/01/30 09:51:59;;;;;;;;;;;;;;;21.53;20.79;97912.03;4997950;28;1002;-77
2023/01/30 09:54:25;;;;;;;;;;;;;;;21.62;20.75;97915.03;4981947;28;1012;-77
2023/01/30 09:56:53;;;;;;;;;;;;;;;21.66;20.80;97912.91;4981965;28;948;-77
2023/01/30 09:59:21;;;;;;;;;;;;;;;21.40;21.00;97902.69;4981527;28;1918;-77
2023/01/30 10:01:46;;;;;;;;;;;;;;;21.00;21.61;97902.91;4981500;28;1059;-77
2023/01/30 10:04:22;;;;;;;;;;;;;;;21.23;21.41;97902.69;4981259;28;1057;-77
2023/01/30 10:06:50;;;;;;;;;;;;;;;21.67;20.73;97900.31;5004687;28;1222;-78
2023/01/30 10:09:20;;;;;;;;;;;;;;;21.70;20.80;97895.78;5014319;28;1004;-77
2023/01/30 10:11:48;;;;;;;;;;;;;;;21.35;21.18;97883.41;5014147;28;1010;-77
2023/01/30 10:14:22;;;;;;;;;;;;;;;21.46;21.24;97881.09;4997274;28;1045;-78
2023/01/30 10:16:48;;;;;;;;;;;;;;;21.18;21.61;97879.81;4996597;28;1686;-77
2023/01/30 10:19:13;;;;;;;;;;;;;;;21.68;21.09;97872.78;4987171;28;1918;-77
2023/01/30 10:21:56;;;;;;;;;;;;;;;21.42;21.34;97871.91;4986283;28;1325;-77
2023/01/30 10:24:21;;;;;;;;;;;;;;;21.66;20.74;97864.75;4970771;28;1286;-78
2023/01/30 10:26:47;;;;;;;;;;;;;;;21.50;21.23;97861.97;4985515;28;1225;-77
2023/01/30 10:29:12;;;;;;;;;;;;;;;21.04;21.50;97859.16;4987474;28;1198;-78
2023/01/30 10:31:45;;;;;;;;;;;;;;;20.55;21.57;97777.22;4975772;28;1215;-77
2023/01/30 10:34:11;;;;;;;;;;;;;;;21.71;20.95;97850.06;4987705;28;1411;-77
2023/01/30 10:36:55;;;;;;;;;;;;;;;21.69;20.93;97852.53;4968433;28;1246;-77
2023/01/30 10:39:25;;;;;;;;;;;;;;;21.69;20.80;97841.19;4987243;28;1983;-77
2023/01/30 10:41:53;;;;;;;;;;;;;;;21.36;21.20;97839.75;4971102;28;1405;-77
2023/01/30 10:44:19;;;;;;;;;;;;;;;21.06;21.80;97844.56;4968563;28;1279;-77
2023/01/30 10:46:45;;;;;;;;;;;;;;;21.32;21.28;97834.97;4970434;28;1535;-77
2023/01/30 10:49:16;;;;;;;;;;;;;;;21.59;21.27;97830.97;5014610;28;1171;-77
2023/01/30 10:51:47;;;;;;;;;;;;;;;21.61;21.20;97820.00;5017587;28;1195;-77
2023/01/30 10:54:18;;;;;;;;;;;;;;;21.40;21.24;97823.44;5005467;28;1207;-77
2023/01/30 10:56:52;;;;;;;;;;;;;;;21.24;21.63;97813.75;4999448;28;1207;-77
2023/01/30 10:59:17;;;;;;;;;;;;;;;20.99;21.90;97814.44;5017358;28;1991;-77
2023/01/30 11:01:43;;;;;;;;;;;;;;;21.60;21.22;97807.06;5017656;28;1344;-76
2023/01/30 11:04:41;;;;;;;;;;;;;;;21.83;20.81;97801.13;5008239;28;1238;-77
2023/01/30 11:07:07;;;;;;;;;;;;;;;21.74;20.92;97803.81;4956662;29;1176;-77
2023/01/30 11:09:45;;;;;;;;;;;;;;;21.54;20.94;97791.88;4956653;29;1219;-76
2023/01/30 11:12:11;;;;;;;;;;;;;;;21.71;20.84;97784.91;4956594;29;1278;-77
2023/01/30 11:14:49;;;;;;;;;;;;;;;21.36;21.44;97777.47;4956740;29;1259;-77
2023/01/30 11:17:16;;;;;;;;;;;;;;;21.14;21.59;97766.75;4948950;29;1212;-76
2023/01/30 11:19:41;;;;;;;;;;;;;;;21.53;20.98;97770.50;4956252;29;1903;-77
2023/01/30 11:22:10;;;;;;;;;;;;;;;21.68;20.84;97760.31;4940690;29;1287;-77
2023/01/30 11:24:39;;;;;;;;;;;;;;;21.62;20.91;97767.00;4937997;29;1277;-77
2023/01/30 11:27:15;;;;;;;;;;;;;;;21.46;21.09;97763.00;4956166;29;1235;-76
2023/01/30 11:29:41;;;;;;;;;;;;;;;21.42;20.97;97753.03;4954535;29;1209;-77
2023/01/30 11:32:21;;;;;;;;;;;;;;;21.19;21.32;97752.06;4956466;29;1284;-77
2023/01/30 11:35:02;;;;;;;;;;;;;;;21.09;21.67;97741.84;4939280;29;1337;-77
2023/01/30 11:37:31;;;;;;;;;;;;;;;21.72;21.01;97749.69;4938347;29;1098;-77
2023/01/30 11:39:56;;;;;;;;;;;;;;;21.59;20.85;97744.00;4922215;29;1974;-77
2023/01/30 11:42:24;;;;;;;;;;;;;;;21.69;20.96;97744.91;4959510;28;1055;-77
2023/01/30 11:44:53;;;;;;;;;;;;;;;21.21;21.28;97743.91;4997480;28;1145;-77
2023/01/30 11:47:22;;;;;;;;;;;;;;;21.01;21.52;97734.78;4998282;28;937;-78
2023/01/30 11:49:51;;;;;;;;;;;;;;;21.02;21.65;97736.38;5002154;28;1266;-77
2023/01/30 11:52:21;;;;;;;;;;;;;;;21.10;21.59;97726.44;5017894;28;1222;-77
2023/01/30 11:54:48;;;;;;;;;;;;;;;21.47;21.09;97727.00;4995606;28;1065;-77
2023/01/30 11:57:14;;;;;;;;;;;;;;;21.48;20.99;97726.53;4996106;28;1098;-78
2023/01/30 11:59:42;;;;;;;;;;;;;;;21.37;21.13;97723.25;4979222;28;1984;-77
2023/01/30 12:02:13;;;;;;;;;;;;;;;21.11;21.48;97715.91;4995915;28;969;-77
2023/01/30 12:04:42;;;;;;;;;;;;;;;20.94;21.80;97709.53;4979215;28;1027;-77
2023/01/30 12:07:20;;;;;;;;;;;;;;;21.08;21.93;97714.78;4995751;28;1068;-77
2023/01/30 12:09:49;;;;;;;;;;;;;;;21.22;21.53;97711.53;4978457;28;956;-77
2023/01/30 12:12:29;;;;;;;;;;;;;;;21.43;21.14;97704.47;4996026;28;945;-77
2023/01/30 12:15:09;;;;;;;;;;;;;;;21.73;20.99;97693.84;4995276;28;923;-77
2023/01/30 12:17:53;;;;;;;;;;;;;;;21.27;21.30;97701.69;4979213;28;1914;-77
2023/01/30 12:20:23;;;;;;;;;;;;;;;21.00;22.03;97693.59;4995322;28;948;-77
2023/01/30 12:23:02;;;;;;;;;;;;;;;20.88;21.96;97688.69;4995148;28;963;-77
2023/01/30 12:25:34;;;;;;;;;;;;;;;21.19;21.56;97691.81;4987096;28;984;-77
2023/01/30 12:28:12;;;;;;;;;;;;;;;21.41;21.19;97684.31;5015874;28;996;-77
2023/01/30 12:30:51;;;;;;;;;;;;;;;21.48;21.11;97684.09;5017278;28;994;-77
2023/01/30 12:33:17;;;;;;;;;;;;;;;21.33;21.53;97683.72;5015440;28;1064;-77
2023/01/30 12:35:46;;;;;;;;;;;;;;;21.11;21.55;97679.16;5017228;28;910;-77
2023/01/30 12:38:14;;;;;;;;;;;;;;;20.92;21.77;97675.25;5015345;28;1982;-77
2023/01/30 12:40:44;;;;;;;;;;;;;;;21.34;21.55;97673.19;4996051;28;1096;-77
2023/01/30 12:43:12;;;;;;;;;;;;;;;21.71;20.86;97659.50;5012040;28;975;-77
2023/01/30 12:46:10;;;;;;;;;;;;;;;21.65;20.87;97659.28;4997015;28;998;-78
2023/01/30 12:48:57;;;;;;;;;;;;;;;21.46;21.16;97657.50;4956306;29;962;-77
2023/01/30 12:51:38;;;;;;;;;;;;;;;21.30;21.55;97655.56;4940222;29;1046;-77
2023/01/30 12:54:03;;;;;;;;;;;;;;;21.19;21.57;97661.50;4956275;29;968;-77
2023/01/30 12:56:41;;;;;;;;;;;;;;;21.42;21.24;97646.28;4956236;29;1048;-77
2023/01/30 12:59:15;;;;;;;;;;;;;;;21.44;21.20;97637.31;4956024;29;1903;-78
2023/01/30 13:01:45;;;;;;;;;;;;;;;21.58;21.08;97645.38;4955728;29;994;-77
2023/01/30 13:04:14;;;;;;;;;;;;;;;21.44;21.16;97638.09;4940026;29;1012;-77
2023/01/30 13:06:52;;;;;;;;;;;;;;;21.22;21.52;97649.28;4955939;29;982;-77
2023/01/30 13:09:35;;;;;;;;;;;;;;;20.92;22.04;97646.97;4955899;29;1000;-77
2023/01/30 13:12:04;;;;;;;;;;;;;;;21.23;21.50;97633.09;4940002;29;1075;-77
2023/01/30 13:14:40;;;;;;;;;;;;;;;21.63;20.99;97633.47;4955633;29;1003;-77